Time;durP1;ratioP1;P1;durP2;ratioP2;P2;SDS_P1;SDS_P2;PMS_P1;PMS_P2;Temp;Humidity;BMP_temperature;BMP_pressure;BME280_temperature;BME280_humidity;BME280_pressure;Samples;Min_cycle;Max_cycle;Signal;HPM_P1;HPM_P2
2024/02/17 00:01:40;;;;;;;88.40;59.50;;;;;;;;;;6265497;28;24479;-84
2024/02/17 00:04:41;;;;;;;87.00;58.35;;;;;;;;;;6264804;28;24461;-82
2024/02/17 00:07:42;;;;;;;87.75;58.88;;;;;;;;;;6262062;28;24408;-82
2024/02/17 00:10:45;;;;;;;86.35;58.88;;;;;;;;;;6264182;28;24414;-85
2024/02/17 00:13:47;;;;;;;84.45;59.60;;;;;;;;;;6266734;28;24420;-84
2024/02/17 00:16:49;;;;;;;85.50;58.00;;;;;;;;;;6266891;28;24422;-82
2024/02/17 00:19:50;;;;;;;88.82;60.20;;;;;;;;;;6264465;28;24650;-84
2024/02/17 00:22:51;;;;;;;86.55;58.78;;;;;;;;;;6264168;28;24423;-82
2024/02/17 00:25:54;;;;;;;87.03;60.80;;;;;;;;;;6269268;28;24451;-83
2024/02/17 00:28:57;;;;;;;90.60;60.38;;;;;;;;;;6266031;28;24434;-83
2024/02/17 00:31:58;;;;;;;86.25;58.50;;;;;;;;;;6265986;28;24415;-85
2024/02/17 00:35:05;;;;;;;91.00;60.70;;;;;;;;;;6264433;28;24619;-81
2024/02/17 00:38:07;;;;;;;89.72;60.97;;;;;;;;;;6261906;28;24424;-83
2024/02/17 00:41:10;;;;;;;93.13;60.85;;;;;;;;;;6265308;28;24619;-82
2024/02/17 00:44:12;;;;;;;92.32;61.53;;;;;;;;;;6263699;28;24432;-82
2024/02/17 00:47:13;;;;;;;95.22;62.53;;;;;;;;;;6265038;28;24473;-83
2024/02/17 00:50:15;;;;;;;93.20;63.38;;;;;;;;;;6267041;28;24430;-82
2024/02/17 00:53:16;;;;;;;90.38;62.63;;;;;;;;;;6259679;28;24431;-83
2024/02/17 00:56:21;;;;;;;91.60;62.60;;;;;;;;;;6261707;28;24411;-82
2024/02/17 00:59:23;;;;;;;96.25;64.35;;;;;;;;;;6268629;28;24624;-83
2024/02/17 01:02:29;;;;;;;97.68;64.90;;;;;;;;;;6262980;28;24434;-81
2024/02/17 01:05:31;;;;;;;99.38;65.75;;;;;;;;;;6264735;28;24720;-81
2024/02/17 01:08:32;;;;;;;95.97;64.20;;;;;;;;;;6264066;28;24431;-82
2024/02/17 01:11:35;;;;;;;96.37;65.40;;;;;;;;;;6264185;28;24430;-82
2024/02/17 01:14:37;;;;;;;93.57;62.92;;;;;;;;;;6263678;28;24810;-82
2024/02/17 01:17:38;;;;;;;96.13;65.22;;;;;;;;;;6264058;28;24415;-82
2024/02/17 01:20:40;;;;;;;97.05;65.07;;;;;;;;;;6263093;28;24435;-82
2024/02/17 01:23:41;;;;;;;96.23;65.90;;;;;;;;;;6261027;28;24426;-81
2024/02/17 01:26:44;;;;;;;98.03;65.18;;;;;;;;;;6262676;28;24463;-82
2024/02/17 01:29:45;;;;;;;96.60;62.37;;;;;;;;;;6267311;28;24518;-83
2024/02/17 01:32:47;;;;;;;97.22;63.75;;;;;;;;;;6267253;28;24434;-82
2024/02/17 01:35:48;;;;;;;99.85;66.70;;;;;;;;;;6269956;28;24434;-84
2024/02/17 01:38:49;;;;;;;99.50;65.90;;;;;;;;;;6270826;28;24423;-84
2024/02/17 01:41:52;;;;;;;97.47;66.37;;;;;;;;;;6267371;28;24817;-81
2024/02/17 01:44:54;;;;;;;95.15;64.47;;;;;;;;;;6266495;28;24430;-82
2024/02/17 01:47:55;;;;;;;92.20;65.70;;;;;;;;;;6264672;28;24502;-82
2024/02/17 01:50:57;;;;;;;100.28;67.80;;;;;;;;;;6267864;28;24416;-81
2024/02/17 01:53:59;;;;;;;94.53;64.63;;;;;;;;;;6267553;28;24872;-82
2024/02/17 01:57:02;;;;;;;102.05;67.78;;;;;;;;;;6266945;28;24831;-81
2024/02/17 02:00:04;;;;;;;101.88;67.45;;;;;;;;;;6266142;28;24427;-82
2024/02/17 02:03:06;;;;;;;104.82;69.20;;;;;;;;;;6269771;28;24466;-83
2024/02/17 02:06:07;;;;;;;101.95;68.60;;;;;;;;;;6267937;28;24454;-82
2024/02/17 02:09:09;;;;;;;106.33;71.93;;;;;;;;;;6269465;28;24447;-81
2024/02/17 02:12:12;;;;;;;109.55;71.15;;;;;;;;;;6268344;28;24423;-82
2024/02/17 02:15:13;;;;;;;99.07;66.73;;;;;;;;;;6266759;28;24799;-82
2024/02/17 02:18:14;;;;;;;101.28;68.05;;;;;;;;;;6267814;28;24498;-82
2024/02/17 02:21:16;;;;;;;101.00;67.75;;;;;;;;;;6268265;28;24641;-82
2024/02/17 02:24:18;;;;;;;96.15;68.13;;;;;;;;;;6268100;28;24431;-81
2024/02/17 02:27:20;;;;;;;95.78;65.03;;;;;;;;;;6267814;28;24623;-81
2024/02/17 02:30:22;;;;;;;100.38;67.28;;;;;;;;;;6272525;28;24447;-80
2024/02/17 02:33:24;;;;;;;105.50;71.70;;;;;;;;;;6269085;28;24894;-82
2024/02/17 02:36:25;;;;;;;106.53;71.05;;;;;;;;;;6268797;28;25074;-81
2024/02/17 02:39:27;;;;;;;96.70;65.37;;;;;;;;;;6265469;28;24513;-81
2024/02/17 02:42:30;;;;;;;101.72;66.72;;;;;;;;;;6265749;28;24424;-82
2024/02/17 02:45:33;;;;;;;92.67;65.33;;;;;;;;;;6270132;28;24692;-82
2024/02/17 02:48:34;;;;;;;100.25;66.70;;;;;;;;;;6265189;28;24478;-81
2024/02/17 02:51:36;;;;;;;97.68;66.70;;;;;;;;;;6271602;28;24431;-83
2024/02/17 02:54:37;;;;;;;97.45;65.88;;;;;;;;;;6266956;28;24423;-82
2024/02/17 02:57:40;;;;;;;97.40;66.57;;;;;;;;;;6266083;28;24422;-81
2024/02/17 03:00:41;;;;;;;100.38;67.75;;;;;;;;;;6267175;28;24419;-81
2024/02/17 03:03:43;;;;;;;99.30;65.90;;;;;;;;;;6266443;28;24439;-80
2024/02/17 03:06:44;;;;;;;97.63;64.65;;;;;;;;;;6268751;28;24507;-82
2024/02/17 03:09:46;;;;;;;96.93;64.68;;;;;;;;;;6268006;28;24438;-81
2024/02/17 03:12:49;;;;;;;97.47;64.05;;;;;;;;;;6269000;28;24430;-82
2024/02/17 03:15:51;;;;;;;94.93;62.75;;;;;;;;;;6265432;28;24424;-81
2024/02/17 03:18:52;;;;;;;95.32;64.05;;;;;;;;;;6268196;28;24431;-82
2024/02/17 03:21:54;;;;;;;97.97;63.67;;;;;;;;;;6268687;28;24424;-81
2024/02/17 03:24:55;;;;;;;96.28;63.97;;;;;;;;;;6265404;28;24427;-81
2024/02/17 03:27:58;;;;;;;93.35;62.38;;;;;;;;;;6267491;28;24411;-81
2024/02/17 03:30:59;;;;;;;95.55;61.53;;;;;;;;;;6267600;28;24439;-81
2024/02/17 03:34:05;;;;;;;93.88;61.78;;;;;;;;;;6265653;28;24428;-81
2024/02/17 03:37:07;;;;;;;94.45;61.78;;;;;;;;;;6265263;28;24616;-80
2024/02/17 03:40:10;;;;;;;96.95;61.45;;;;;;;;;;6267790;28;24458;-82
2024/02/17 03:43:13;;;;;;;96.47;61.47;;;;;;;;;;6266124;28;24415;-81
2024/02/17 03:46:15;;;;;;;92.17;59.67;;;;;;;;;;6264805;28;24794;-80
2024/02/17 03:49:20;;;;;;;93.23;59.60;;;;;;;;;;6266659;28;24446;-81
2024/02/17 03:52:21;;;;;;;92.87;58.53;;;;;;;;;;6266217;28;24897;-81
2024/02/17 03:55:23;;;;;;;88.00;57.00;;;;;;;;;;6268439;28;24403;-81
2024/02/17 03:58:26;;;;;;;95.20;60.00;;;;;;;;;;6267962;28;24428;-81
2024/02/17 04:01:27;;;;;;;91.18;59.03;;;;;;;;;;6265526;28;24454;-81
2024/02/17 04:04:28;;;;;;;93.67;59.47;;;;;;;;;;6269031;28;24870;-81
2024/02/17 04:07:30;;;;;;;87.78;58.00;;;;;;;;;;6263067;28;24419;-81
2024/02/17 04:10:31;;;;;;;90.22;59.60;;;;;;;;;;6264868;28;24419;-81
2024/02/17 04:13:34;;;;;;;88.20;58.78;;;;;;;;;;6267384;28;24427;-80
2024/02/17 04:16:36;;;;;;;94.97;62.10;;;;;;;;;;6265848;28;24414;-81
2024/02/17 04:19:37;;;;;;;94.90;62.47;;;;;;;;;;6265729;28;24438;-81
2024/02/17 04:22:39;;;;;;;95.05;63.75;;;;;;;;;;6265634;28;24771;-80
2024/02/17 04:25:41;;;;;;;97.03;63.47;;;;;;;;;;6266413;28;24404;-81
2024/02/17 04:28:45;;;;;;;95.67;64.37;;;;;;;;;;6263595;28;25161;-82
2024/02/17 04:31:47;;;;;;;93.40;62.88;;;;;;;;;;6262350;28;24447;-82
2024/02/17 04:34:48;;;;;;;93.50;62.38;;;;;;;;;;6264193;28;24810;-81
2024/02/17 04:37:51;;;;;;;93.28;63.55;;;;;;;;;;6264553;28;24439;-81
2024/02/17 04:40:52;;;;;;;96.97;63.95;;;;;;;;;;6263029;28;24419;-82
2024/02/17 04:43:55;;;;;;;91.50;63.97;;;;;;;;;;6266280;28;24830;-80
2024/02/17 04:46:56;;;;;;;94.45;63.38;;;;;;;;;;6263967;28;24431;-80
2024/02/17 04:49:58;;;;;;;92.37;62.30;;;;;;;;;;6262877;28;24703;-82
2024/02/17 04:52:59;;;;;;;94.13;63.05;;;;;;;;;;6263936;28;24490;-82
2024/02/17 04:56:01;;;;;;;95.97;63.50;;;;;;;;;;6263552;28;24416;-81
2024/02/17 04:59:04;;;;;;;92.82;63.30;;;;;;;;;;6263486;28;24414;-80
2024/02/17 05:02:05;;;;;;;96.43;62.45;;;;;;;;;;6265548;28;24427;-81
2024/02/17 05:05:07;;;;;;;90.45;62.17;;;;;;;;;;6264477;28;24427;-80
2024/02/17 05:08:08;;;;;;;91.97;62.20;;;;;;;;;;6265448;28;24610;-81
2024/02/17 05:11:10;;;;;;;93.63;62.17;;;;;;;;;;6265298;28;24817;-80
2024/02/17 05:14:15;;;;;;;92.47;63.28;;;;;;;;;;6265461;28;24774;-83
2024/02/17 05:17:17;;;;;;;91.17;61.93;;;;;;;;;;6262333;28;24423;-84
2024/02/17 05:20:18;;;;;;;91.75;61.85;;;;;;;;;;6263339;28;24421;-83
2024/02/17 05:23:20;;;;;;;92.13;60.67;;;;;;;;;;6263981;28;24420;-83
2024/02/17 05:26:21;;;;;;;91.40;62.65;;;;;;;;;;6263014;28;25024;-80
2024/02/17 05:29:24;;;;;;;94.82;62.17;;;;;;;;;;6265114;28;24865;-82
2024/02/17 05:32:27;;;;;;;88.13;61.30;;;;;;;;;;6264969;28;24419;-81
2024/02/17 05:35:28;;;;;;;96.65;64.55;;;;;;;;;;6263584;28;24806;-80
2024/02/17 05:38:29;;;;;;;95.65;63.80;;;;;;;;;;6262810;28;24426;-82
2024/02/17 05:41:31;;;;;;;92.05;61.92;;;;;;;;;;6265595;28;24427;-82
2024/02/17 05:44:34;;;;;;;93.75;62.08;;;;;;;;;;6263939;28;24472;-81
2024/02/17 05:47:35;;;;;;;94.03;62.10;;;;;;;;;;6260487;28;24431;-80
2024/02/17 05:50:36;;;;;;;95.07;62.38;;;;;;;;;;6265968;28;24474;-83
2024/02/17 05:53:38;;;;;;;97.70;64.05;;;;;;;;;;6264472;28;24432;-82
2024/02/17 05:56:40;;;;;;;94.75;65.03;;;;;;;;;;6264722;28;24423;-79
2024/02/17 05:59:42;;;;;;;94.18;63.35;;;;;;;;;;6263780;28;24461;-81
2024/02/17 06:02:44;;;;;;;95.38;63.95;;;;;;;;;;6264368;28;24446;-81
2024/02/17 06:05:45;;;;;;;93.78;65.18;;;;;;;;;;6266380;28;24428;-81
2024/02/17 06:08:47;;;;;;;95.78;63.22;;;;;;;;;;6266462;28;24428;-83
2024/02/17 06:11:49;;;;;;;93.40;63.95;;;;;;;;;;6265461;28;24426;-83
2024/02/17 06:14:51;;;;;;;95.03;64.32;;;;;;;;;;6265376;28;24434;-83
2024/02/17 06:21:10;;;;;;;92.53;61.90;;;;;;;;;;6264742;28;24423;-80
2024/02/17 06:21:19;;;;;;;95.57;63.90;;;;;;;;;;6269723;28;24551;-80
2024/02/17 06:24:21;;;;;;;94.88;63.53;;;;;;;;;;6269115;28;24437;-83
2024/02/17 06:27:22;;;;;;;92.88;62.15;;;;;;;;;;6264554;28;24842;-83
2024/02/17 06:30:25;;;;;;;94.18;61.83;;;;;;;;;;6268002;28;24557;-80
2024/02/17 06:33:31;;;;;;;89.90;60.60;;;;;;;;;;6265867;28;24476;-81
2024/02/17 06:36:32;;;;;;;92.95;62.33;;;;;;;;;;6266084;28;24443;-81
2024/02/17 06:39:34;;;;;;;88.43;60.13;;;;;;;;;;6269509;28;24485;-81
2024/02/17 06:42:35;;;;;;;91.50;61.47;;;;;;;;;;6266245;28;24489;-82
2024/02/17 06:45:38;;;;;;;91.80;62.88;;;;;;;;;;6266711;28;24772;-82
2024/02/17 06:48:40;;;;;;;89.65;61.58;;;;;;;;;;6268428;28;24423;-82
2024/02/17 06:51:41;;;;;;;90.22;62.42;;;;;;;;;;6264629;28;24443;-83
2024/02/17 06:54:43;;;;;;;87.72;60.08;;;;;;;;;;6268739;28;24427;-80
2024/02/17 06:57:44;;;;;;;92.22;62.10;;;;;;;;;;6268403;28;24495;-83
2024/02/17 07:00:47;;;;;;;86.32;60.83;;;;;;;;;;6267912;28;24837;-80
2024/02/17 07:03:49;;;;;;;91.72;63.05;;;;;;;;;;6269192;28;24507;-82
2024/02/17 07:06:50;;;;;;;90.32;61.90;;;;;;;;;;6266863;28;24835;-83
2024/02/17 07:09:52;;;;;;;90.22;62.67;;;;;;;;;;6262366;28;24640;-82
2024/02/17 07:12:53;;;;;;;91.97;63.00;;;;;;;;;;6264875;28;24431;-82
2024/02/17 07:15:56;;;;;;;92.80;63.37;;;;;;;;;;6265655;28;24455;-84
2024/02/17 07:18:59;;;;;;;90.45;61.15;;;;;;;;;;6264806;28;24416;-83
2024/02/17 07:22:00;;;;;;;92.88;64.30;;;;;;;;;;6268438;28;24884;-82
2024/02/17 07:25:02;;;;;;;98.05;67.50;;;;;;;;;;6268258;28;24431;-80
2024/02/17 07:28:04;;;;;;;98.50;66.80;;;;;;;;;;6260274;28;24439;-81
2024/02/17 07:31:07;;;;;;;99.30;66.22;;;;;;;;;;6265705;28;24509;-80
2024/02/17 07:34:08;;;;;;;96.90;65.70;;;;;;;;;;6265574;28;24628;-82
2024/02/17 07:37:10;;;;;;;91.75;63.15;;;;;;;;;;6266556;28;24438;-80
2024/02/17 07:40:11;;;;;;;90.82;62.67;;;;;;;;;;6265331;28;24427;-81
2024/02/17 07:43:13;;;;;;;92.95;63.33;;;;;;;;;;6261261;28;24427;-81
2024/02/17 07:46:16;;;;;;;89.70;63.25;;;;;;;;;;6265171;28;24430;-81
2024/02/17 07:49:18;;;;;;;93.57;63.77;;;;;;;;;;6266656;28;24485;-81
2024/02/17 07:52:19;;;;;;;90.68;62.17;;;;;;;;;;6266648;28;24447;-82
2024/02/17 07:55:21;;;;;;;87.22;61.72;;;;;;;;;;6265640;28;24631;-83
2024/02/17 07:58:23;;;;;;;89.57;62.60;;;;;;;;;;6268795;28;24506;-83
2024/02/17 08:01:25;;;;;;;84.97;60.80;;;;;;;;;;6260954;28;24423;-84
2024/02/17 08:04:27;;;;;;;91.93;63.05;;;;;;;;;;6266233;28;24513;-83
2024/02/17 08:07:28;;;;;;;86.90;60.13;;;;;;;;;;6265546;28;24418;-83
2024/02/17 08:10:30;;;;;;;83.10;59.88;;;;;;;;;;6264493;28;24488;-82
2024/02/17 08:13:31;;;;;;;82.00;59.28;;;;;;;;;;6262198;28;24408;-82
2024/02/17 08:16:34;;;;;;;81.68;57.35;;;;;;;;;;6264387;28;24892;-81
2024/02/17 08:19:36;;;;;;;85.37;59.13;;;;;;;;;;6262444;28;24415;-85
2024/02/17 08:22:37;;;;;;;82.15;59.10;;;;;;;;;;6264985;28;24411;-83
2024/02/17 08:25:38;;;;;;;81.90;58.90;;;;;;;;;;6266641;28;24434;-83
2024/02/17 08:28:40;;;;;;;82.95;61.08;;;;;;;;;;6268822;28;24426;-83
2024/02/17 08:31:49;;;;;;;82.47;59.47;;;;;;;;;;6263491;28;24479;-85
2024/02/17 08:34:51;;;;;;;82.03;58.93;;;;;;;;;;6263522;28;24895;-84
2024/02/17 08:37:53;;;;;;;78.35;56.58;;;;;;;;;;6265501;28;24573;-84
2024/02/17 08:40:54;;;;;;;75.05;55.38;;;;;;;;;;6264418;28;24461;-83
2024/02/17 08:43:56;;;;;;;79.22;58.60;;;;;;;;;;6268835;28;24806;-82
2024/02/17 08:46:58;;;;;;;80.70;58.92;;;;;;;;;;6266714;28;24416;-82
2024/02/17 08:50:00;;;;;;;79.15;58.85;;;;;;;;;;6266468;28;24474;-81
2024/02/17 08:53:03;;;;;;;82.13;60.78;;;;;;;;;;6267669;28;24431;-85
2024/02/17 08:56:05;;;;;;;79.40;58.92;;;;;;;;;;6262978;28;24423;-81
2024/02/17 08:59:06;;;;;;;83.65;60.25;;;;;;;;;;6263482;28;24465;-82
2024/02/17 09:02:15;;;;;;;82.03;59.85;;;;;;;;;;6267201;28;24423;-84
2024/02/17 09:05:17;;;;;;;80.53;60.00;;;;;;;;;;6263830;28;24519;-83
2024/02/17 09:08:18;;;;;;;80.55;60.53;;;;;;;;;;6265315;28;24776;-82
2024/02/17 09:11:21;;;;;;;82.63;60.88;;;;;;;;;;6262991;28;24435;-82
2024/02/17 09:14:22;;;;;;;80.30;59.75;;;;;;;;;;6261703;28;24465;-82
2024/02/17 09:17:25;;;;;;;82.82;62.30;;;;;;;;;;6267633;28;24435;-84
2024/02/17 09:20:27;;;;;;;81.18;60.22;;;;;;;;;;6264026;28;24636;-81
2024/02/17 09:23:31;;;;;;;79.80;60.47;;;;;;;;;;6266234;28;24430;-81
2024/02/17 09:26:32;;;;;;;78.35;58.65;;;;;;;;;;6263460;28;24816;-82
2024/02/17 09:29:34;;;;;;;73.57;56.10;;;;;;;;;;6267081;28;24447;-82
2024/02/17 09:32:36;;;;;;;74.97;57.03;;;;;;;;;;6262069;28;24442;-81
2024/02/17 09:35:38;;;;;;;73.65;56.83;;;;;;;;;;6266457;28;24453;-81
2024/02/17 09:38:39;;;;;;;74.93;56.42;;;;;;;;;;6261913;28;24416;-84
2024/02/17 09:41:41;;;;;;;68.10;54.00;;;;;;;;;;6264360;28;24818;-82
2024/02/17 09:44:43;;;;;;;70.70;56.03;;;;;;;;;;6261342;28;24420;-83
2024/02/17 09:47:46;;;;;;;74.97;59.03;;;;;;;;;;6265391;28;24426;-81
2024/02/17 09:50:49;;;;;;;73.47;57.60;;;;;;;;;;6265246;28;24427;-82
2024/02/17 09:53:52;;;;;;;72.70;55.53;;;;;;;;;;6270572;28;24430;-81
2024/02/17 09:56:53;;;;;;;69.53;53.40;;;;;;;;;;6269205;28;24499;-81
2024/02/17 09:59:55;;;;;;;69.78;54.38;;;;;;;;;;6272579;28;24612;-81
2024/02/17 10:02:59;;;;;;;68.82;54.13;;;;;;;;;;6270328;28;24420;-83
2024/02/17 10:06:09;;;;;;;62.78;50.55;;;;;;;;;;6271529;28;24430;-81
2024/02/17 10:09:18;;;;;;;63.05;51.35;;;;;;;;;;6267836;28;24416;-82
2024/02/17 10:12:19;;;;;;;65.63;50.15;;;;;;;;;;6265623;28;24613;-81
2024/02/17 10:15:21;;;;;;;59.85;48.85;;;;;;;;;;6268457;28;24422;-82
2024/02/17 10:18:24;;;;;;;59.65;49.67;;;;;;;;;;6269449;28;24429;-83
2024/02/17 10:21:26;;;;;;;61.38;49.75;;;;;;;;;;6266797;28;24416;-84
2024/02/17 10:24:27;;;;;;;61.20;51.58;;;;;;;;;;6268356;28;24432;-82
2024/02/17 10:27:29;;;;;;;65.50;53.15;;;;;;;;;;6270597;28;24807;-83
2024/02/17 10:30:32;;;;;;;62.50;52.33;;;;;;;;;;6268389;28;24438;-83
2024/02/17 10:33:37;;;;;;;61.72;51.13;;;;;;;;;;6265015;28;24419;-83
2024/02/17 10:36:39;;;;;;;66.90;52.88;;;;;;;;;;6266996;28;24439;-85
2024/02/17 10:39:40;;;;;;;63.28;52.03;;;;;;;;;;6266249;28;24423;-82
2024/02/17 10:42:43;;;;;;;65.85;54.47;;;;;;;;;;6266603;28;24624;-81
2024/02/17 10:45:45;;;;;;;61.70;51.35;;;;;;;;;;6266295;28;24423;-83
2024/02/17 10:49:06;;;;;;;64.07;53.15;;;;;;;;;;6267554;28;24833;-81
2024/02/17 10:52:09;;;;;;;65.13;51.47;;;;;;;;;;6266508;28;24443;-80
2024/02/17 10:55:12;;;;;;;61.13;51.13;;;;;;;;;;6265618;28;24822;-83
2024/02/17 10:58:17;;;;;;;62.65;50.95;;;;;;;;;;6268010;28;24465;-83
2024/02/17 11:01:19;;;;;;;57.40;47.03;;;;;;;;;;6263237;28;24435;-83
2024/02/17 11:04:22;;;;;;;58.45;46.78;;;;;;;;;;6268809;28;24454;-84
2024/02/17 11:07:26;;;;;;;64.85;51.55;;;;;;;;;;6265416;28;24470;-82
2024/02/17 11:10:28;;;;;;;64.82;50.80;;;;;;;;;;6264144;28;24442;-83
2024/02/17 11:13:29;;;;;;;56.88;45.72;;;;;;;;;;6267464;28;24795;-83
2024/02/17 11:16:34;;;;;;;60.38;47.47;;;;;;;;;;6265472;28;24827;-83
2024/02/17 11:19:38;;;;;;;60.45;48.00;;;;;;;;;;6262125;28;24487;-81
2024/02/17 11:22:41;;;;;;;64.00;50.30;;;;;;;;;;6265653;28;24450;-80
2024/02/17 11:25:42;;;;;;;56.38;44.45;;;;;;;;;;6265507;28;24446;-82
2024/02/17 11:28:46;;;;;;;61.20;48.15;;;;;;;;;;6267489;28;24486;-81
2024/02/17 11:31:48;;;;;;;61.75;49.95;;;;;;;;;;6265549;28;24493;-83
2024/02/17 11:34:52;;;;;;;59.70;46.13;;;;;;;;;;6266857;28;24408;-83
2024/02/17 11:37:54;;;;;;;56.10;45.15;;;;;;;;;;6265563;28;24428;-83
2024/02/17 11:40:56;;;;;;;62.75;48.13;;;;;;;;;;6267335;28;24794;-83
2024/02/17 11:43:58;;;;;;;55.92;45.20;;;;;;;;;;6266014;28;24419;-83
2024/02/17 11:47:00;;;;;;;58.58;45.45;;;;;;;;;;6268253;28;24424;-83
2024/02/17 11:50:10;;;;;;;54.42;43.83;;;;;;;;;;6267801;28;24458;-83
2024/02/17 11:53:12;;;;;;;58.90;46.50;;;;;;;;;;6265608;28;25027;-82
2024/02/17 11:56:14;;;;;;;56.03;44.88;;;;;;;;;;6264074;28;24426;-84
2024/02/17 11:59:16;;;;;;;58.38;46.38;;;;;;;;;;6269935;28;24809;-81
2024/02/17 12:02:19;;;;;;;51.17;40.85;;;;;;;;;;6261867;28;24680;-82
2024/02/17 12:05:22;;;;;;;45.83;37.75;;;;;;;;;;6266140;28;24426;-83
2024/02/17 12:08:24;;;;;;;49.55;41.17;;;;;;;;;;6265912;28;24616;-84
2024/02/17 12:11:26;;;;;;;50.33;41.08;;;;;;;;;;6268693;28;24786;-82
2024/02/17 12:14:27;;;;;;;45.67;37.85;;;;;;;;;;6266781;28;24432;-85
2024/02/17 12:17:29;;;;;;;47.35;38.88;;;;;;;;;;6264448;28;24418;-84
2024/02/17 12:20:32;;;;;;;44.95;36.88;;;;;;;;;;6267843;28;24427;-84
2024/02/17 12:23:35;;;;;;;48.95;39.92;;;;;;;;;;6264582;28;24425;-83
2024/02/17 12:26:37;;;;;;;48.88;40.50;;;;;;;;;;6266833;28;24419;-83
2024/02/17 12:29:38;;;;;;;45.97;38.40;;;;;;;;;;6267713;28;24647;-84
2024/02/17 12:32:40;;;;;;;50.03;42.60;;;;;;;;;;6263897;28;24428;-83
2024/02/17 12:35:45;;;;;;;50.38;41.88;;;;;;;;;;6265328;28;24833;-85
2024/02/17 12:38:46;;;;;;;48.10;38.58;;;;;;;;;;6266403;28;24416;-83
2024/02/17 12:41:58;;;;;;;45.40;37.35;;;;;;;;;;6263500;28;25012;-82
2024/02/17 12:44:59;;;;;;;44.45;37.60;;;;;;;;;;6263995;28;24647;-85
2024/02/17 12:48:02;;;;;;;44.60;35.38;;;;;;;;;;6265706;28;24851;-84
2024/02/17 12:51:05;;;;;;;40.33;33.40;;;;;;;;;;6267406;28;24502;-83
2024/02/17 12:54:06;;;;;;;41.65;34.33;;;;;;;;;;6266455;28;24416;-83
2024/02/17 12:57:08;;;;;;;42.25;34.80;;;;;;;;;;6265500;28;24411;-83
2024/02/17 13:00:10;;;;;;;39.65;33.10;;;;;;;;;;6265944;28;24430;-83
2024/02/17 13:03:13;;;;;;;36.83;31.20;;;;;;;;;;6263595;28;24787;-84
2024/02/17 13:06:16;;;;;;;36.20;31.20;;;;;;;;;;6262927;28;24413;-83
2024/02/17 13:09:18;;;;;;;39.63;33.85;;;;;;;;;;6265881;28;24415;-83
2024/02/17 13:12:19;;;;;;;41.63;35.22;;;;;;;;;;6264481;28;24860;-84
2024/02/17 13:15:21;;;;;;;42.22;33.47;;;;;;;;;;6263048;28;24627;-84
2024/02/17 13:18:22;;;;;;;36.42;30.95;;;;;;;;;;6268148;28;24443;-83
2024/02/17 13:21:25;;;;;;;42.80;36.03;;;;;;;;;;6265470;28;24679;-83
2024/02/17 13:24:27;;;;;;;36.33;30.93;;;;;;;;;;6263688;28;24443;-84
2024/02/17 13:27:28;;;;;;;39.70;32.25;;;;;;;;;;6270617;28;24434;-82
2024/02/17 13:30:29;;;;;;;39.13;31.88;;;;;;;;;;6270397;28;24607;-84
2024/02/17 13:33:32;;;;;;;37.25;30.70;;;;;;;;;;6267652;28;24820;-83
2024/02/17 13:36:35;;;;;;;34.40;29.25;;;;;;;;;;6271944;28;24423;-83
2024/02/17 13:39:36;;;;;;;34.77;28.60;;;;;;;;;;6266828;28;24416;-83
2024/02/17 13:42:38;;;;;;;36.33;29.02;;;;;;;;;;6267024;28;24416;-84
2024/02/17 13:45:45;;;;;;;33.17;26.13;;;;;;;;;;6267199;28;24419;-83
2024/02/17 13:48:47;;;;;;;31.15;25.08;;;;;;;;;;6267694;28;24845;-85
2024/02/17 13:51:50;;;;;;;26.60;22.92;;;;;;;;;;6264916;28;24474;-83
2024/02/17 13:54:51;;;;;;;32.27;26.97;;;;;;;;;;6269064;28;24442;-83
2024/02/17 13:57:53;;;;;;;29.27;23.02;;;;;;;;;;6268581;28;24422;-83
2024/02/17 14:00:54;;;;;;;31.88;26.40;;;;;;;;;;6268819;28;24834;-85
2024/02/17 14:03:56;;;;;;;28.83;23.15;;;;;;;;;;6265639;28;24498;-84
2024/02/17 14:06:59;;;;;;;34.75;29.17;;;;;;;;;;6268239;28;24412;-83
2024/02/17 14:10:00;;;;;;;30.13;25.08;;;;;;;;;;6270030;28;24500;-84
2024/02/17 14:13:02;;;;;;;27.83;23.73;;;;;;;;;;6264980;28;24818;-83
2024/02/17 14:16:03;;;;;;;28.48;23.80;;;;;;;;;;6271479;28;24424;-84
2024/02/17 14:19:05;;;;;;;32.70;26.90;;;;;;;;;;6268056;28;24420;-84
2024/02/17 14:22:08;;;;;;;35.13;27.90;;;;;;;;;;6265922;28;24822;-84
2024/02/17 14:25:12;;;;;;;37.30;30.27;;;;;;;;;;6268911;28;24407;-83
2024/02/17 14:28:14;;;;;;;35.10;28.63;;;;;;;;;;6268851;28;24466;-84
2024/02/17 14:31:15;;;;;;;35.03;29.33;;;;;;;;;;6268285;28;24810;-84
2024/02/17 14:34:17;;;;;;;34.47;28.45;;;;;;;;;;6264015;28;24444;-84
2024/02/17 14:37:19;;;;;;;30.95;26.00;;;;;;;;;;6267554;28;24628;-83
2024/02/17 14:40:21;;;;;;;26.67;22.77;;;;;;;;;;6270021;28;24408;-84
2024/02/17 14:43:22;;;;;;;30.50;25.20;;;;;;;;;;6268021;28;25098;-84
2024/02/17 14:46:24;;;;;;;33.45;26.50;;;;;;;;;;6269702;28;24426;-85
2024/02/17 14:49:26;;;;;;;33.75;27.77;;;;;;;;;;6265507;28;24870;-83
2024/02/17 14:52:28;;;;;;;37.95;30.33;;;;;;;;;;6264829;28;24821;-84
2024/02/17 14:55:30;;;;;;;32.42;26.17;;;;;;;;;;6266957;28;24416;-84
2024/02/17 14:58:32;;;;;;;29.92;23.77;;;;;;;;;;6270098;28;24415;-84
2024/02/17 15:01:34;;;;;;;34.58;27.27;;;;;;;;;;6268601;28;24833;-85
2024/02/17 15:04:36;;;;;;;36.00;28.73;;;;;;;;;;6266292;28;24416;-85
2024/02/17 15:07:38;;;;;;;38.05;29.00;;;;;;;;;;6267727;28;24411;-83
2024/02/17 15:10:40;;;;;;;34.47;27.88;;;;;;;;;;6266814;28;24483;-84
2024/02/17 15:13:41;;;;;;;36.38;29.00;;;;;;;;;;6265932;28;24410;-84
2024/02/17 15:16:43;;;;;;;37.15;29.20;;;;;;;;;;6267327;28;24809;-83
2024/02/17 15:19:45;;;;;;;37.25;29.30;;;;;;;;;;6268334;28;24450;-84
2024/02/17 15:22:48;;;;;;;36.67;29.87;;;;;;;;;;6266730;28;24473;-87
2024/02/17 15:25:49;;;;;;;38.20;29.57;;;;;;;;;;6267046;28;24404;-85
2024/02/17 15:28:51;;;;;;;37.40;27.52;;;;;;;;;;6264088;28;24408;-84
2024/02/17 15:31:52;;;;;;;34.83;26.20;;;;;;;;;;6263888;28;24659;-85
2024/02/17 15:34:54;;;;;;;37.92;28.35;;;;;;;;;;6261411;28;24428;-84
2024/02/17 15:37:57;;;;;;;36.83;28.23;;;;;;;;;;6265164;28;24412;-84
2024/02/17 15:40:59;;;;;;;40.50;30.10;;;;;;;;;;6266094;28;24787;-86
2024/02/17 15:44:01;;;;;;;36.42;26.77;;;;;;;;;;6262968;28;24511;-87
2024/02/17 15:47:02;;;;;;;37.05;28.85;;;;;;;;;;6264251;28;24415;-87
2024/02/17 15:50:04;;;;;;;37.97;28.03;;;;;;;;;;6265909;28;24419;-85
2024/02/17 15:53:08;;;;;;;39.78;28.77;;;;;;;;;;6265067;28;24434;-84
2024/02/17 15:56:11;;;;;;;43.57;31.87;;;;;;;;;;6267454;28;24838;-85
2024/02/17 15:59:12;;;;;;;40.05;29.02;;;;;;;;;;6262735;28;25839;-86
2024/02/17 16:02:14;;;;;;;41.88;30.55;;;;;;;;;;6264617;28;24419;-85
2024/02/17 16:05:16;;;;;;;47.75;33.30;;;;;;;;;;6269057;28;24818;-84
2024/02/17 16:08:19;;;;;;;44.88;32.47;;;;;;;;;;6264494;28;24415;-82
2024/02/17 16:11:20;;;;;;;41.28;30.17;;;;;;;;;;6265875;28;24419;-86
2024/02/17 16:14:22;;;;;;;41.90;30.02;;;;;;;;;;6265742;28;24431;-84
2024/02/17 16:17:23;;;;;;;43.25;31.08;;;;;;;;;;6267654;28;24422;-85
2024/02/17 16:20:25;;;;;;;46.07;32.27;;;;;;;;;;6265565;28;24523;-82
2024/02/17 16:23:28;;;;;;;44.92;31.45;;;;;;;;;;6265020;28;24469;-83
2024/02/17 16:26:31;;;;;;;48.38;33.25;;;;;;;;;;6267609;28;24432;-82
2024/02/17 16:29:33;;;;;;;48.92;33.67;;;;;;;;;;6263456;28;24830;-86
2024/02/17 16:32:35;;;;;;;47.75;32.92;;;;;;;;;;6264883;28;24415;-84
2024/02/17 16:35:36;;;;;;;47.67;32.20;;;;;;;;;;6263932;28;24496;-85
2024/02/17 16:38:39;;;;;;;47.80;32.65;;;;;;;;;;6266783;28;24835;-85
2024/02/17 16:41:41;;;;;;;46.92;32.75;;;;;;;;;;6264915;28;24620;-84
2024/02/17 16:44:42;;;;;;;49.25;33.33;;;;;;;;;;6264336;28;24423;-83
2024/02/17 16:47:43;;;;;;;50.80;34.80;;;;;;;;;;6262386;28;24419;-86
2024/02/17 16:50:45;;;;;;;47.75;33.35;;;;;;;;;;6262586;28;24412;-84
2024/02/17 16:53:48;;;;;;;52.78;35.72;;;;;;;;;;6263706;28;24431;-84
2024/02/17 16:56:51;;;;;;;52.25;36.17;;;;;;;;;;6263568;28;24627;-84
2024/02/17 16:59:53;;;;;;;50.40;35.45;;;;;;;;;;6263684;28;24901;-84
2024/02/17 17:02:54;;;;;;;52.70;37.73;;;;;;;;;;6263586;28;24427;-83
2024/02/17 17:05:56;;;;;;;51.97;37.20;;;;;;;;;;6263018;28;24428;-83
2024/02/17 17:08:59;;;;;;;54.08;36.97;;;;;;;;;;6264575;28;24845;-84
2024/02/17 17:12:02;;;;;;;52.07;36.20;;;;;;;;;;6263948;28;24432;-85
2024/02/17 17:15:05;;;;;;;51.80;36.08;;;;;;;;;;6266568;28;24510;-83
2024/02/17 17:18:06;;;;;;;54.85;37.75;;;;;;;;;;6263963;28;24422;-84
2024/02/17 17:21:09;;;;;;;56.72;39.13;;;;;;;;;;6264580;28;24424;-83
2024/02/17 17:24:12;;;;;;;57.13;38.22;;;;;;;;;;6263501;28;24439;-84
2024/02/17 17:27:13;;;;;;;55.92;39.00;;;;;;;;;;6262689;28;24678;-84
2024/02/17 17:30:17;;;;;;;54.60;38.27;;;;;;;;;;6264606;28;24901;-85
2024/02/17 17:33:19;;;;;;;59.00;40.57;;;;;;;;;;6265282;28;24438;-83
2024/02/17 17:36:20;;;;;;;60.05;41.60;;;;;;;;;;6263692;28;24794;-83
2024/02/17 17:39:23;;;;;;;58.88;40.60;;;;;;;;;;6265514;28;24427;-84